sensor_id;sensor_type;location;lat;lon;timestamp;temperature;humidity
4209;DHT22;36320;48.860;2.380;2023-10-19T00:00:19;19.10;91.50
4209;DHT22;36320;48.860;2.380;2023-10-19T00:02:53;19.00;91.30
4209;DHT22;36320;48.860;2.380;2023-10-19T00:05:27;19.00;91.40
4209;DHT22;36320;48.860;2.380;2023-10-19T00:07:57;19.00;91.40
4209;DHT22;36320;48.860;2.380;2023-10-19T00:10:26;19.00;91.40
4209;DHT22;36320;48.860;2.380;2023-10-19T00:12:58;19.00;91.40
4209;DHT22;36320;48.860;2.380;2023-10-19T00:15:31;19.00;91.40
4209;DHT22;36320;48.860;2.380;2023-10-19T00:17:58;19.00;91.40
4209;DHT22;36320;48.860;2.380;2023-10-19T00:20:31;19.00;91.40
4209;DHT22;36320;48.860;2.380;2023-10-19T00:23:18;19.10;91.40
4209;DHT22;36320;48.860;2.380;2023-10-19T00:25:50;19.10;91.50
4209;DHT22;36320;48.860;2.380;2023-10-19T00:28:18;19.00;91.50
4209;DHT22;36320;48.860;2.380;2023-10-19T00:30:45;19.00;91.80
4209;DHT22;36320;48.860;2.380;2023-10-19T00:33:13;19.00;91.50
4209;DHT22;36320;48.860;2.380;2023-10-19T00:35:43;19.10;91.80
4209;DHT22;36320;48.860;2.380;2023-10-19T00:38:13;19.10;91.50
4209;DHT22;36320;48.860;2.380;2023-10-19T00:40:57;19.10;91.50
4209;DHT22;36320;48.860;2.380;2023-10-19T00:43:33;19.00;91.60
4209;DHT22;36320;48.860;2.380;2023-10-19T00:46:03;19.00;91.80
4209;DHT22;36320;48.860;2.380;2023-10-19T00:48:34;19.00;91.70
4209;DHT22;36320;48.860;2.380;2023-10-19T00:51:00;19.00;91.70
4209;DHT22;36320;48.860;2.380;2023-10-19T00:53:38;19.00;91.70
4209;DHT22;36320;48.860;2.380;2023-10-19T00:56:07;19.10;91.70
4209;DHT22;36320;48.860;2.380;2023-10-19T00:58:37;19.00;91.60
4209;DHT22;36320;48.860;2.380;2023-10-19T01:01:05;19.10;91.70
4209;DHT22;36320;48.860;2.380;2023-10-19T01:03:33;19.00;91.70
4209;DHT22;36320;48.860;2.380;2023-10-19T01:06:05;19.00;91.80
4209;DHT22;36320;48.860;2.380;2023-10-19T01:08:36;18.90;91.80
4209;DHT22;36320;48.860;2.380;2023-10-19T01:11:10;18.90;91.90
4209;DHT22;36320;48.860;2.380;2023-10-19T01:13:41;19.00;91.90
4209;DHT22;36320;48.860;2.380;2023-10-19T01:16:14;19.00;91.90
4209;DHT22;36320;48.860;2.380;2023-10-19T01:18:50;19.10;91.80
4209;DHT22;36320;48.860;2.380;2023-10-19T01:21:22;19.10;91.90
4209;DHT22;36320;48.860;2.380;2023-10-19T01:23:53;19.10;91.80
4209;DHT22;36320;48.860;2.380;2023-10-19T01:26:19;19.10;91.90
4209;DHT22;36320;48.860;2.380;2023-10-19T01:28:51;19.20;91.80
4209;DHT22;36320;48.860;2.380;2023-10-19T01:31:26;19.30;91.80
4209;DHT22;36320;48.860;2.380;2023-10-19T01:33:58;19.30;91.80
4209;DHT22;36320;48.860;2.380;2023-10-19T01:36:26;19.30;91.80
4209;DHT22;36320;48.860;2.380;2023-10-19T01:38:57;19.20;91.90
4209;DHT22;36320;48.860;2.380;2023-10-19T01:41:35;19.20;92.00
4209;DHT22;36320;48.860;2.380;2023-10-19T01:44:01;19.10;92.10
4209;DHT22;36320;48.860;2.380;2023-10-19T01:46:34;19.10;92.10
4209;DHT22;36320;48.860;2.380;2023-10-19T01:49:01;19.00;92.10
4209;DHT22;36320;48.860;2.380;2023-10-19T01:51:30;19.00;92.20
4209;DHT22;36320;48.860;2.380;2023-10-19T01:53:57;19.00;92.30
4209;DHT22;36320;48.860;2.380;2023-10-19T01:56:23;19.00;92.30
4209;DHT22;36320;48.860;2.380;2023-10-19T01:58:52;19.00;92.30
4209;DHT22;36320;48.860;2.380;2023-10-19T02:01:20;19.00;92.30
4209;DHT22;36320;48.860;2.380;2023-10-19T02:03:52;19.00;92.40
4209;DHT22;36320;48.860;2.380;2023-10-19T02:06:30;18.90;92.50
4209;DHT22;36320;48.860;2.380;2023-10-19T02:08:59;18.90;92.60
4209;DHT22;36320;48.860;2.380;2023-10-19T02:11:46;19.00;92.50
4209;DHT22;36320;48.860;2.380;2023-10-19T02:14:13;18.90;92.50
4209;DHT22;36320;48.860;2.380;2023-10-19T02:16:46;18.90;92.60
4209;DHT22;36320;48.860;2.380;2023-10-19T02:19:37;19.00;92.50
4209;DHT22;36320;48.860;2.380;2023-10-19T02:22:03;18.90;92.60
4209;DHT22;36320;48.860;2.380;2023-10-19T02:24:49;18.80;92.70
4209;DHT22;36320;48.860;2.380;2023-10-19T02:27:14;18.90;92.70
4209;DHT22;36320;48.860;2.380;2023-10-19T02:29:40;19.00;92.60
4209;DHT22;36320;48.860;2.380;2023-10-19T02:32:07;19.10;92.70
4209;DHT22;36320;48.860;2.380;2023-10-19T02:34:33;19.00;92.60
4209;DHT22;36320;48.860;2.380;2023-10-19T02:37:00;19.00;92.60
4209;DHT22;36320;48.860;2.380;2023-10-19T02:39:26;19.00;92.60
4209;DHT22;36320;48.860;2.380;2023-10-19T02:41:56;19.00;92.60
4209;DHT22;36320;48.860;2.380;2023-10-19T02:44:21;19.00;92.60
4209;DHT22;36320;48.860;2.380;2023-10-19T02:46:52;18.90;92.60
4209;DHT22;36320;48.860;2.380;2023-10-19T02:49:23;18.80;92.70
4209;DHT22;36320;48.860;2.380;2023-10-19T02:51:52;18.80;92.80
4209;DHT22;36320;48.860;2.380;2023-10-19T02:54:26;18.90;92.70
4209;DHT22;36320;48.860;2.380;2023-10-19T02:56:54;18.90;92.80
4209;DHT22;36320;48.860;2.380;2023-10-19T02:59:24;18.90;92.70
4209;DHT22;36320;48.860;2.380;2023-10-19T03:01:55;18.80;92.70
4209;DHT22;36320;48.860;2.380;2023-10-19T03:04:32;18.90;93.10
4209;DHT22;36320;48.860;2.380;2023-10-19T03:07:02;18.90;92.70
4209;DHT22;36320;48.860;2.380;2023-10-19T03:09:29;18.80;92.80
4209;DHT22;36320;48.860;2.380;2023-10-19T03:11:56;18.80;92.70
4209;DHT22;36320;48.860;2.380;2023-10-19T03:14:29;18.70;92.80
4209;DHT22;36320;48.860;2.380;2023-10-19T03:16:57;18.70;92.80
4209;DHT22;36320;48.860;2.380;2023-10-19T03:19:27;18.70;92.80
4209;DHT22;36320;48.860;2.380;2023-10-19T03:21:54;18.60;92.80
4209;DHT22;36320;48.860;2.380;2023-10-19T03:24:22;18.60;92.90
4209;DHT22;36320;48.860;2.380;2023-10-19T03:27:03;18.60;92.80
4209;DHT22;36320;48.860;2.380;2023-10-19T03:29:48;18.60;92.90
4209;DHT22;36320;48.860;2.380;2023-10-19T03:32:25;18.70;92.90
4209;DHT22;36320;48.860;2.380;2023-10-19T03:34:58;18.70;92.90
4209;DHT22;36320;48.860;2.380;2023-10-19T03:37:29;18.70;93.10
4209;DHT22;36320;48.860;2.380;2023-10-19T03:39:56;18.80;92.80
4209;DHT22;36320;48.860;2.380;2023-10-19T03:42:22;18.70;92.70
4209;DHT22;36320;48.860;2.380;2023-10-19T03:44:51;18.70;92.80
4209;DHT22;36320;48.860;2.380;2023-10-19T03:47:21;18.60;92.80
4209;DHT22;36320;48.860;2.380;2023-10-19T03:49:51;18.70;92.90
4209;DHT22;36320;48.860;2.380;2023-10-19T03:52:18;18.70;92.80
4209;DHT22;36320;48.860;2.380;2023-10-19T03:54:44;18.70;92.80
4209;DHT22;36320;48.860;2.380;2023-10-19T03:57:13;18.70;92.80
4209;DHT22;36320;48.860;2.380;2023-10-19T03:59:49;18.80;92.80
4209;DHT22;36320;48.860;2.380;2023-10-19T04:02:20;18.70;92.80
4209;DHT22;36320;48.860;2.380;2023-10-19T04:05:00;18.70;92.90
4209;DHT22;36320;48.860;2.380;2023-10-19T04:07:29;18.60;92.90
4209;DHT22;36320;48.860;2.380;2023-10-19T04:09:57;18.60;93.00
4209;DHT22;36320;48.860;2.380;2023-10-19T04:12:36;18.60;93.30
4209;DHT22;36320;48.860;2.380;2023-10-19T04:15:07;18.70;92.90
4209;DHT22;36320;48.860;2.380;2023-10-19T04:17:45;18.70;92.90
4209;DHT22;36320;48.860;2.380;2023-10-19T04:20:13;18.70;92.90
4209;DHT22;36320;48.860;2.380;2023-10-19T04:22:43;18.60;92.90
4209;DHT22;36320;48.860;2.380;2023-10-19T04:25:08;18.60;92.90
4209;DHT22;36320;48.860;2.380;2023-10-19T04:27:54;18.70;92.90
4209;DHT22;36320;48.860;2.380;2023-10-19T04:30:22;18.60;92.80
4209;DHT22;36320;48.860;2.380;2023-10-19T04:32:49;18.70;92.90
4209;DHT22;36320;48.860;2.380;2023-10-19T04:35:16;18.60;92.90
4209;DHT22;36320;48.860;2.380;2023-10-19T04:37:49;18.70;92.90
4209;DHT22;36320;48.860;2.380;2023-10-19T04:40:16;18.70;92.90
4209;DHT22;36320;48.860;2.380;2023-10-19T04:42:43;18.70;92.90
4209;DHT22;36320;48.860;2.380;2023-10-19T04:45:10;18.70;92.90
4209;DHT22;36320;48.860;2.380;2023-10-19T04:47:37;18.70;92.90
4209;DHT22;36320;48.860;2.380;2023-10-19T04:50:04;18.70;92.90
4209;DHT22;36320;48.860;2.380;2023-10-19T04:52:33;18.70;92.90
4209;DHT22;36320;48.860;2.380;2023-10-19T04:54:59;18.70;92.90
4209;DHT22;36320;48.860;2.380;2023-10-19T04:57:28;18.70;92.90
4209;DHT22;36320;48.860;2.380;2023-10-19T04:59:56;18.70;92.90
4209;DHT22;36320;48.860;2.380;2023-10-19T05:02:21;18.70;92.90
4209;DHT22;36320;48.860;2.380;2023-10-19T05:04:47;18.70;92.90
4209;DHT22;36320;48.860;2.380;2023-10-19T05:07:14;18.70;92.90
4209;DHT22;36320;48.860;2.380;2023-10-19T05:09:47;18.70;92.90
4209;DHT22;36320;48.860;2.380;2023-10-19T05:12:14;18.70;92.90
4209;DHT22;36320;48.860;2.380;2023-10-19T05:14:41;18.70;92.90
4209;DHT22;36320;48.860;2.380;2023-10-19T05:17:08;18.70;92.90
4209;DHT22;36320;48.860;2.380;2023-10-19T05:19:38;18.70;92.90
4209;DHT22;36320;48.860;2.380;2023-10-19T05:22:06;18.70;93.00
4209;DHT22;36320;48.860;2.380;2023-10-19T05:24:33;18.40;92.80
4209;DHT22;36320;48.860;2.380;2023-10-19T05:26:59;18.70;93.00
4209;DHT22;36320;48.860;2.380;2023-10-19T05:29:25;18.70;93.00
4209;DHT22;36320;48.860;2.380;2023-10-19T05:31:51;18.70;92.90
4209;DHT22;36320;48.860;2.380;2023-10-19T05:34:24;18.70;92.90
4209;DHT22;36320;48.860;2.380;2023-10-19T05:36:52;18.70;93.00
4209;DHT22;36320;48.860;2.380;2023-10-19T05:39:22;18.70;92.90
4209;DHT22;36320;48.860;2.380;2023-10-19T05:41:56;18.80;92.90
4209;DHT22;36320;48.860;2.380;2023-10-19T05:44:30;18.80;92.90
4209;DHT22;36320;48.860;2.380;2023-10-19T05:46:57;18.80;92.80
4209;DHT22;36320;48.860;2.380;2023-10-19T05:49:28;18.80;92.80
4209;DHT22;36320;48.860;2.380;2023-10-19T05:51:54;18.80;92.80
4209;DHT22;36320;48.860;2.380;2023-10-19T05:54:22;18.70;92.80
4209;DHT22;36320;48.860;2.380;2023-10-19T05:56:52;18.80;93.10
4209;DHT22;36320;48.860;2.380;2023-10-19T05:59:20;18.80;92.80
4209;DHT22;36320;48.860;2.380;2023-10-19T06:01:49;18.80;92.70
4209;DHT22;36320;48.860;2.380;2023-10-19T06:04:17;18.90;92.80
4209;DHT22;36320;48.860;2.380;2023-10-19T06:06:43;18.80;92.70
4209;DHT22;36320;48.860;2.380;2023-10-19T06:09:12;18.80;92.70
4209;DHT22;36320;48.860;2.380;2023-10-19T06:11:45;18.80;92.70
4209;DHT22;36320;48.860;2.380;2023-10-19T06:14:11;18.80;92.80
4209;DHT22;36320;48.860;2.380;2023-10-19T06:16:37;18.80;92.80
4209;DHT22;36320;48.860;2.380;2023-10-19T06:19:03;18.90;92.80
4209;DHT22;36320;48.860;2.380;2023-10-19T06:21:29;18.80;92.80
4209;DHT22;36320;48.860;2.380;2023-10-19T06:24:00;18.80;92.90
4209;DHT22;36320;48.860;2.380;2023-10-19T06:26:26;18.80;92.90
4209;DHT22;36320;48.860;2.380;2023-10-19T06:28:52;18.80;92.90
4209;DHT22;36320;48.860;2.380;2023-10-19T06:31:24;18.90;93.00
4209;DHT22;36320;48.860;2.380;2023-10-19T06:33:50;18.90;93.00
4209;DHT22;36320;48.860;2.380;2023-10-19T06:36:16;18.80;92.90
4209;DHT22;36320;48.860;2.380;2023-10-19T06:38:44;18.90;93.00
4209;DHT22;36320;48.860;2.380;2023-10-19T06:41:12;18.80;92.90
4209;DHT22;36320;48.860;2.380;2023-10-19T06:43:41;18.90;93.30
4209;DHT22;36320;48.860;2.380;2023-10-19T06:46:07;18.90;92.90
4209;DHT22;36320;48.860;2.380;2023-10-19T06:48:36;19.00;92.90
4209;DHT22;36320;48.860;2.380;2023-10-19T06:51:01;19.00;92.90
4209;DHT22;36320;48.860;2.380;2023-10-19T06:53:27;19.00;92.90
4209;DHT22;36320;48.860;2.380;2023-10-19T06:55:56;18.90;92.90
4209;DHT22;36320;48.860;2.380;2023-10-19T06:58:22;19.00;92.90
4209;DHT22;36320;48.860;2.380;2023-10-19T07:00:52;18.90;92.90
4209;DHT22;36320;48.860;2.380;2023-10-19T07:03:33;19.00;92.90
4209;DHT22;36320;48.860;2.380;2023-10-19T07:05:59;19.00;92.80
4209;DHT22;36320;48.860;2.380;2023-10-19T07:08:32;19.10;93.20
4209;DHT22;36320;48.860;2.380;2023-10-19T07:10:58;19.10;92.80
4209;DHT22;36320;48.860;2.380;2023-10-19T07:13:25;19.10;92.80
4209;DHT22;36320;48.860;2.380;2023-10-19T07:15:51;19.00;92.80
4209;DHT22;36320;48.860;2.380;2023-10-19T07:18:19;19.00;92.80
4209;DHT22;36320;48.860;2.380;2023-10-19T07:20:45;19.00;92.80
4209;DHT22;36320;48.860;2.380;2023-10-19T07:23:14;19.00;92.80
4209;DHT22;36320;48.860;2.380;2023-10-19T07:25:48;19.00;92.80
4209;DHT22;36320;48.860;2.380;2023-10-19T07:28:18;19.00;92.80
4209;DHT22;36320;48.860;2.380;2023-10-19T07:30:45;19.00;92.80
4209;DHT22;36320;48.860;2.380;2023-10-19T07:33:16;19.00;92.90
4209;DHT22;36320;48.860;2.380;2023-10-19T07:35:52;19.00;92.90
4209;DHT22;36320;48.860;2.380;2023-10-19T07:38:21;18.40;92.50
4209;DHT22;36320;48.860;2.380;2023-10-19T07:40:48;19.00;92.70
4209;DHT22;36320;48.860;2.380;2023-10-19T07:43:14;19.10;92.70
4209;DHT22;36320;48.860;2.380;2023-10-19T07:45:39;19.10;92.80
4209;DHT22;36320;48.860;2.380;2023-10-19T07:48:07;19.20;92.70
4209;DHT22;36320;48.860;2.380;2023-10-19T07:50:36;19.30;92.70
4209;DHT22;36320;48.860;2.380;2023-10-19T07:53:02;19.30;92.60
4209;DHT22;36320;48.860;2.380;2023-10-19T07:55:28;19.40;92.50
4209;DHT22;36320;48.860;2.380;2023-10-19T07:57:54;19.50;92.40
4209;DHT22;36320;48.860;2.380;2023-10-19T08:00:21;19.50;92.40
4209;DHT22;36320;48.860;2.380;2023-10-19T08:02:47;19.60;92.30
4209;DHT22;36320;48.860;2.380;2023-10-19T08:05:20;19.60;92.20
4209;DHT22;36320;48.860;2.380;2023-10-19T08:07:47;19.60;92.10
4209;DHT22;36320;48.860;2.380;2023-10-19T08:10:16;19.60;92.00
4209;DHT22;36320;48.860;2.380;2023-10-19T08:12:44;19.60;92.10
4209;DHT22;36320;48.860;2.380;2023-10-19T08:15:14;19.50;92.10
4209;DHT22;36320;48.860;2.380;2023-10-19T08:17:47;19.50;92.00
4209;DHT22;36320;48.860;2.380;2023-10-19T08:20:14;19.50;92.00
4209;DHT22;36320;48.860;2.380;2023-10-19T08:22:52;19.50;91.90
4209;DHT22;36320;48.860;2.380;2023-10-19T08:25:18;19.50;91.90
4209;DHT22;36320;48.860;2.380;2023-10-19T08:27:45;19.60;91.90
4209;DHT22;36320;48.860;2.380;2023-10-19T08:30:14;19.80;91.80
4209;DHT22;36320;48.860;2.380;2023-10-19T08:32:41;19.90;91.70
4209;DHT22;36320;48.860;2.380;2023-10-19T08:35:08;20.00;91.60
4209;DHT22;36320;48.860;2.380;2023-10-19T08:37:38;20.10;91.40
4209;DHT22;36320;48.860;2.380;2023-10-19T08:40:07;20.10;91.30
4209;DHT22;36320;48.860;2.380;2023-10-19T08:42:33;20.10;91.30
4209;DHT22;36320;48.860;2.380;2023-10-19T08:45:00;20.20;91.20
4209;DHT22;36320;48.860;2.380;2023-10-19T08:47:26;20.20;91.10
4209;DHT22;36320;48.860;2.380;2023-10-19T08:49:53;20.30;91.10
4209;DHT22;36320;48.860;2.380;2023-10-19T08:52:21;20.20;91.00
4209;DHT22;36320;48.860;2.380;2023-10-19T08:54:51;20.20;90.90
4209;DHT22;36320;48.860;2.380;2023-10-19T08:57:18;20.20;90.80
4209;DHT22;36320;48.860;2.380;2023-10-19T08:59:44;20.30;90.80
4209;DHT22;36320;48.860;2.380;2023-10-19T09:02:12;20.20;90.60
4209;DHT22;36320;48.860;2.380;2023-10-19T09:04:42;20.50;90.50
4209;DHT22;36320;48.860;2.380;2023-10-19T09:07:11;20.60;90.50
4209;DHT22;36320;48.860;2.380;2023-10-19T09:09:38;20.60;90.40
4209;DHT22;36320;48.860;2.380;2023-10-19T09:12:07;20.60;90.30
4209;DHT22;36320;48.860;2.380;2023-10-19T09:14:36;20.60;90.30
4209;DHT22;36320;48.860;2.380;2023-10-19T09:17:07;20.60;90.30
4209;DHT22;36320;48.860;2.380;2023-10-19T09:19:36;20.70;90.30
4209;DHT22;36320;48.860;2.380;2023-10-19T09:22:04;20.70;90.20
4209;DHT22;36320;48.860;2.380;2023-10-19T09:24:34;20.70;90.10
4209;DHT22;36320;48.860;2.380;2023-10-19T09:27:02;20.70;90.10
4209;DHT22;36320;48.860;2.380;2023-10-19T09:29:30;20.90;90.00
4209;DHT22;36320;48.860;2.380;2023-10-19T09:31:58;21.00;89.90
4209;DHT22;36320;48.860;2.380;2023-10-19T09:34:28;21.10;89.70
4209;DHT22;36320;48.860;2.380;2023-10-19T09:36:58;21.00;89.60
4209;DHT22;36320;48.860;2.380;2023-10-19T09:39:29;20.90;89.50
4209;DHT22;36320;48.860;2.380;2023-10-19T09:42:09;20.80;89.50
4209;DHT22;36320;48.860;2.380;2023-10-19T09:44:47;20.70;89.60
4209;DHT22;36320;48.860;2.380;2023-10-19T09:47:41;20.60;89.70
4209;DHT22;36320;48.860;2.380;2023-10-19T09:50:09;20.60;89.90
4209;DHT22;36320;48.860;2.380;2023-10-19T09:52:39;20.70;89.90
4209;DHT22;36320;48.860;2.380;2023-10-19T09:55:26;20.70;89.90
4209;DHT22;36320;48.860;2.380;2023-10-19T10:00:35;20.80;89.40
4209;DHT22;36320;48.860;2.380;2023-10-19T10:03:01;20.60;89.30
4209;DHT22;36320;48.860;2.380;2023-10-19T10:10:48;20.70;89.70
4209;DHT22;36320;48.860;2.380;2023-10-19T10:15:54;20.70;89.60
4209;DHT22;36320;48.860;2.380;2023-10-19T10:18:35;20.70;89.60
4209;DHT22;36320;48.860;2.380;2023-10-19T10:21:10;20.70;89.60
4209;DHT22;36320;48.860;2.380;2023-10-19T10:24:02;20.70;89.40
4209;DHT22;36320;48.860;2.380;2023-10-19T10:26:30;20.90;89.40
4209;DHT22;36320;48.860;2.380;2023-10-19T10:29:21;20.80;89.30
4209;DHT22;36320;48.860;2.380;2023-10-19T10:31:50;20.80;89.20
4209;DHT22;36320;48.860;2.380;2023-10-19T10:37:10;20.90;89.00
4209;DHT22;36320;48.860;2.380;2023-10-19T10:39:38;20.00;87.90
4209;DHT22;36320;48.860;2.380;2023-10-19T10:42:07;21.00;88.70
4209;DHT22;36320;48.860;2.380;2023-10-19T10:44:42;21.00;88.40
4209;DHT22;36320;48.860;2.380;2023-10-19T10:47:21;21.10;88.10
4209;DHT22;36320;48.860;2.380;2023-10-19T10:49:58;21.10;88.00
4209;DHT22;36320;48.860;2.380;2023-10-19T10:55:09;21.30;87.80
4209;DHT22;36320;48.860;2.380;2023-10-19T10:57:39;21.30;87.60
4209;DHT22;36320;48.860;2.380;2023-10-19T11:00:06;21.40;87.40
4209;DHT22;36320;48.860;2.380;2023-10-19T11:02:37;21.40;87.00
4209;DHT22;36320;48.860;2.380;2023-10-19T11:05:12;21.50;86.80
4209;DHT22;36320;48.860;2.380;2023-10-19T11:07:39;21.50;86.60
4209;DHT22;36320;48.860;2.380;2023-10-19T11:10:05;21.60;86.40
4209;DHT22;36320;48.860;2.380;2023-10-19T11:12:32;21.60;86.20
4209;DHT22;36320;48.860;2.380;2023-10-19T11:14:59;21.70;86.20
4209;DHT22;36320;48.860;2.380;2023-10-19T11:17:26;21.80;86.10
4209;DHT22;36320;48.860;2.380;2023-10-19T11:19:58;21.80;85.90
4209;DHT22;36320;48.860;2.380;2023-10-19T11:22:26;21.60;85.40
4209;DHT22;36320;48.860;2.380;2023-10-19T11:24:55;21.80;85.30
4209;DHT22;36320;48.860;2.380;2023-10-19T11:27:25;21.90;85.20
4209;DHT22;36320;48.860;2.380;2023-10-19T11:29:55;22.00;85.10
4209;DHT22;36320;48.860;2.380;2023-10-19T11:32:22;22.10;84.90
4209;DHT22;36320;48.860;2.380;2023-10-19T11:34:54;22.20;84.80
4209;DHT22;36320;48.860;2.380;2023-10-19T11:37:20;22.20;84.50
4209;DHT22;36320;48.860;2.380;2023-10-19T11:39:46;22.30;84.10
4209;DHT22;36320;48.860;2.380;2023-10-19T11:42:12;22.30;83.90
4209;DHT22;36320;48.860;2.380;2023-10-19T11:44:39;22.40;83.30
4209;DHT22;36320;48.860;2.380;2023-10-19T11:47:06;22.50;82.90
4209;DHT22;36320;48.860;2.380;2023-10-19T11:49:31;22.70;82.50
4209;DHT22;36320;48.860;2.380;2023-10-19T11:51:58;22.70;81.90
4209;DHT22;36320;48.860;2.380;2023-10-19T11:54:24;22.90;81.60
4209;DHT22;36320;48.860;2.380;2023-10-19T11:56:51;22.80;81.20
4209;DHT22;36320;48.860;2.380;2023-10-19T11:59:20;22.80;80.90
4209;DHT22;36320;48.860;2.380;2023-10-19T12:01:45;22.90;80.60
4209;DHT22;36320;48.860;2.380;2023-10-19T12:04:11;23.00;80.30
4209;DHT22;36320;48.860;2.380;2023-10-19T12:06:37;23.30;80.00
4209;DHT22;36320;48.860;2.380;2023-10-19T12:09:04;23.40;79.40
4209;DHT22;36320;48.860;2.380;2023-10-19T12:11:41;23.50;79.10
4209;DHT22;36320;48.860;2.380;2023-10-19T12:14:08;23.40;78.90
4209;DHT22;36320;48.860;2.380;2023-10-19T12:16:37;23.30;78.70
4209;DHT22;36320;48.860;2.380;2023-10-19T12:19:05;24.30;77.80
4209;DHT22;36320;48.860;2.380;2023-10-19T12:21:32;24.10;76.60
4209;DHT22;36320;48.860;2.380;2023-10-19T12:23:59;24.00;76.40
4209;DHT22;36320;48.860;2.380;2023-10-19T12:26:27;23.80;75.50
4209;DHT22;36320;48.860;2.380;2023-10-19T12:28:55;23.80;75.90
4209;DHT22;36320;48.860;2.380;2023-10-19T12:31:20;24.20;75.50
4209;DHT22;36320;48.860;2.380;2023-10-19T12:33:48;24.20;75.10
4209;DHT22;36320;48.860;2.380;2023-10-19T12:36:14;24.00;75.90
4209;DHT22;36320;48.860;2.380;2023-10-19T12:38:58;23.70;75.40
4209;DHT22;36320;48.860;2.380;2023-10-19T12:41:24;23.80;75.70
4209;DHT22;36320;48.860;2.380;2023-10-19T12:43:50;23.50;75.70
4209;DHT22;36320;48.860;2.380;2023-10-19T12:46:33;23.50;76.00
4209;DHT22;36320;48.860;2.380;2023-10-19T12:49:05;23.60;76.00
4209;DHT22;36320;48.860;2.380;2023-10-19T12:51:39;23.90;76.00
4209;DHT22;36320;48.860;2.380;2023-10-19T12:54:07;24.10;75.30
4209;DHT22;36320;48.860;2.380;2023-10-19T12:56:35;24.30;74.90
4209;DHT22;36320;48.860;2.380;2023-10-19T12:59:01;24.20;74.90
4209;DHT22;36320;48.860;2.380;2023-10-19T13:01:27;24.80;74.60
4209;DHT22;36320;48.860;2.380;2023-10-19T13:03:53;25.00;73.60
4209;DHT22;36320;48.860;2.380;2023-10-19T13:06:19;24.70;73.60
4209;DHT22;36320;48.860;2.380;2023-10-19T13:08:45;24.60;73.80
4209;DHT22;36320;48.860;2.380;2023-10-19T13:11:11;24.40;73.70
4209;DHT22;36320;48.860;2.380;2023-10-19T13:13:40;24.20;74.10
4209;DHT22;36320;48.860;2.380;2023-10-19T13:16:07;24.20;74.10
4209;DHT22;36320;48.860;2.380;2023-10-19T13:18:35;24.10;73.90
4209;DHT22;36320;48.860;2.380;2023-10-19T13:21:01;23.80;74.00
4209;DHT22;36320;48.860;2.380;2023-10-19T13:23:33;23.80;74.30
4209;DHT22;36320;48.860;2.380;2023-10-19T13:26:00;24.30;74.30
4209;DHT22;36320;48.860;2.380;2023-10-19T13:28:43;24.50;73.40
4209;DHT22;36320;48.860;2.380;2023-10-19T13:31:09;24.50;73.30
4209;DHT22;36320;48.860;2.380;2023-10-19T13:33:35;24.50;73.40
4209;DHT22;36320;48.860;2.380;2023-10-19T13:36:01;24.30;72.70
4209;DHT22;36320;48.860;2.380;2023-10-19T13:38:27;24.10;73.10
4209;DHT22;36320;48.860;2.380;2023-10-19T13:40:54;24.50;73.10
4209;DHT22;36320;48.860;2.380;2023-10-19T13:43:20;24.50;72.40
4209;DHT22;36320;48.860;2.380;2023-10-19T13:45:47;24.20;72.60
4209;DHT22;36320;48.860;2.380;2023-10-19T13:48:14;24.00;72.80
4209;DHT22;36320;48.860;2.380;2023-10-19T13:50:46;24.00;72.80
4209;DHT22;36320;48.860;2.380;2023-10-19T13:53:14;24.20;72.60
4209;DHT22;36320;48.860;2.380;2023-10-19T13:55:41;24.20;72.30
4209;DHT22;36320;48.860;2.380;2023-10-19T13:58:07;24.10;72.10
4209;DHT22;36320;48.860;2.380;2023-10-19T14:00:33;23.90;72.70
4209;DHT22;36320;48.860;2.380;2023-10-19T14:02:59;23.80;71.90
4209;DHT22;36320;48.860;2.380;2023-10-19T14:05:27;23.80;72.00
4209;DHT22;36320;48.860;2.380;2023-10-19T14:07:53;23.80;71.90
4209;DHT22;36320;48.860;2.380;2023-10-19T14:10:19;23.90;71.70
4209;DHT22;36320;48.860;2.380;2023-10-19T14:12:47;23.70;71.20
4209;DHT22;36320;48.860;2.380;2023-10-19T14:15:20;24.30;71.40
4209;DHT22;36320;48.860;2.380;2023-10-19T14:17:50;24.30;71.00
4209;DHT22;36320;48.860;2.380;2023-10-19T14:20:17;24.40;71.00
4209;DHT22;36320;48.860;2.380;2023-10-19T14:22:53;24.40;71.00
4209;DHT22;36320;48.860;2.380;2023-10-19T14:25:20;24.40;71.30
4209;DHT22;36320;48.860;2.380;2023-10-19T14:27:49;24.30;71.20
4209;DHT22;36320;48.860;2.380;2023-10-19T14:30:21;24.20;71.40
4209;DHT22;36320;48.860;2.380;2023-10-19T14:32:47;24.10;71.40
4209;DHT22;36320;48.860;2.380;2023-10-19T14:35:21;24.00;71.50
4209;DHT22;36320;48.860;2.380;2023-10-19T14:37:49;23.90;71.40
4209;DHT22;36320;48.860;2.380;2023-10-19T14:40:17;23.90;71.40
4209;DHT22;36320;48.860;2.380;2023-10-19T14:42:47;23.90;71.40
4209;DHT22;36320;48.860;2.380;2023-10-19T14:45:16;23.80;71.40
4209;DHT22;36320;48.860;2.380;2023-10-19T14:47:50;23.70;71.40
4209;DHT22;36320;48.860;2.380;2023-10-19T14:50:20;23.70;71.60
4209;DHT22;36320;48.860;2.380;2023-10-19T14:52:48;23.60;71.60
4209;DHT22;36320;48.860;2.380;2023-10-19T14:55:15;23.60;71.60
4209;DHT22;36320;48.860;2.380;2023-10-19T14:57:42;23.60;71.50
4209;DHT22;36320;48.860;2.380;2023-10-19T15:00:10;23.60;71.70
4209;DHT22;36320;48.860;2.380;2023-10-19T15:02:58;23.60;71.90
4209;DHT22;36320;48.860;2.380;2023-10-19T15:05:27;23.50;71.90
4209;DHT22;36320;48.860;2.380;2023-10-19T15:07:54;23.50;72.10
4209;DHT22;36320;48.860;2.380;2023-10-19T15:10:26;23.50;72.20
4209;DHT22;36320;48.860;2.380;2023-10-19T15:13:04;23.60;72.20
4209;DHT22;36320;48.860;2.380;2023-10-19T15:15:30;23.70;72.00
4209;DHT22;36320;48.860;2.380;2023-10-19T15:17:57;23.90;71.90
4209;DHT22;36320;48.860;2.380;2023-10-19T15:20:29;23.90;71.70
4209;DHT22;36320;48.860;2.380;2023-10-19T15:22:57;23.90;71.70
4209;DHT22;36320;48.860;2.380;2023-10-19T15:25:23;23.80;71.70
4209;DHT22;36320;48.860;2.380;2023-10-19T15:27:50;23.70;71.70
4209;DHT22;36320;48.860;2.380;2023-10-19T15:30:17;23.60;71.60
4209;DHT22;36320;48.860;2.380;2023-10-19T15:32:47;23.60;71.50
4209;DHT22;36320;48.860;2.380;2023-10-19T15:35:15;23.50;71.30
4209;DHT22;36320;48.860;2.380;2023-10-19T15:37:43;23.40;71.10
4209;DHT22;36320;48.860;2.380;2023-10-19T15:40:09;23.40;71.00
4209;DHT22;36320;48.860;2.380;2023-10-19T15:42:41;23.10;70.80
4209;DHT22;36320;48.860;2.380;2023-10-19T15:45:10;23.10;70.90
4209;DHT22;36320;48.860;2.380;2023-10-19T15:47:41;23.00;71.10
4209;DHT22;36320;48.860;2.380;2023-10-19T15:50:10;23.00;71.30
4209;DHT22;36320;48.860;2.380;2023-10-19T15:52:38;23.00;71.50
4209;DHT22;36320;48.860;2.380;2023-10-19T15:55:11;22.90;71.80
4209;DHT22;36320;48.860;2.380;2023-10-19T15:57:38;22.90;72.10
4209;DHT22;36320;48.860;2.380;2023-10-19T16:00:10;22.90;72.30
4209;DHT22;36320;48.860;2.380;2023-10-19T16:02:39;22.90;72.50
4209;DHT22;36320;48.860;2.380;2023-10-19T16:05:06;22.90;72.60
4209;DHT22;36320;48.860;2.380;2023-10-19T16:07:33;22.80;73.30
4209;DHT22;36320;48.860;2.380;2023-10-19T16:09:59;22.60;74.20
4209;DHT22;36320;48.860;2.380;2023-10-19T16:12:25;22.50;75.10
4209;DHT22;36320;48.860;2.380;2023-10-19T16:14:50;22.40;76.00